Time;durP1;ratioP1;P1;durP2;ratioP2;P2;SDS_P1;SDS_P2;PMS_P1;PMS_P2;Temp;Humidity;BMP_temperature;BMP_pressure;BME280_temperature;BME280_humidity;BME280_pressure;Samples;Min_cycle;Max_cycle;Signal;HPM_P1;HPM_P2
2023/07/22 00:00:51;;;;;;;6.40;3.90;;;;;;;18.23;89.74;100167.93;91125;1276;137580;-73
2023/07/22 00:02:53;;;;;;;3.90;3.60;;;;;;;18.23;89.49;100168.79;91255;1272;22217;-72
2023/07/22 00:04:55;;;;;;;7.40;3.70;;;;;;;18.24;89.03;100168.22;91108;1278;139008;-72
2023/07/22 00:06:57;;;;;;;4.00;3.60;;;;;;;18.26;88.74;100168.63;91242;1273;23331;-71
2023/07/22 00:08:58;;;;;;;7.00;2.70;;;;;;;18.28;88.51;100171.89;91147;1272;138747;-72
2023/07/22 00:11:00;;;;;;;3.50;2.90;;;;;;;18.29;88.69;100169.05;91247;1272;22235;-73
2023/07/22 00:13:02;;;;;;;8.30;3.00;;;;;;;18.29;88.80;100165.89;91099;1276;138947;-72
2023/07/22 00:15:06;;;;;;;6.00;3.20;;;;;;;18.29;89.08;100167.35;91219;1273;22203;-73
2023/07/22 00:17:08;;;;;;;4.60;2.80;;;;;;;18.29;89.49;100166.90;91112;1272;138772;-73
2023/07/22 00:19:10;;;;;;;7.40;3.20;;;;;;;18.27;89.72;100159.20;91223;1272;22425;-73
2023/07/22 00:21:15;;;;;;;6.00;2.80;;;;;;;18.25;89.93;100155.56;91063;1273;139170;-75
2023/07/22 00:23:17;;;;;;;2.70;2.50;;;;;;;18.24;90.53;100152.04;91170;1273;23161;-73
2023/07/22 00:25:18;;;;;;;3.40;3.10;;;;;;;18.24;91.01;100153.44;91068;1268;138099;-72
2023/07/22 00:27:20;;;;;;;4.40;3.00;;;;;;;18.23;91.10;100152.55;91215;1278;22306;-72
2023/07/22 00:29:22;;;;;;;8.90;3.60;;;;;;;18.21;91.14;100152.52;91091;1273;138091;-71
2023/07/22 00:31:24;;;;;;;3.80;2.50;;;;;;;18.18;91.35;100149.55;91182;1275;22970;-79
2023/07/22 00:33:26;;;;;;;3.60;2.30;;;;;;;18.14;91.65;100152.55;91002;1260;137956;-75
2023/07/22 00:35:28;;;;;;;3.00;2.70;;;;;;;18.09;92.07;100142.83;91163;1272;22257;-74
2023/07/22 00:37:30;;;;;;;8.00;3.00;;;;;;;18.06;92.65;100133.80;91086;1273;138265;-73
2023/07/22 00:39:31;;;;;;;3.00;2.80;;;;;;;18.02;93.01;100128.17;91177;1274;22209;-74
2023/07/22 00:41:33;;;;;;;3.70;3.40;;;;;;;17.97;93.33;100128.20;91113;1272;137733;-73
2023/07/22 00:43:35;;;;;;;5.50;4.60;;;;;;;17.93;93.75;100128.77;91058;1272;23160;-74
2023/07/22 00:45:37;;;;;;;5.10;4.10;;;;;;;17.90;94.33;100119.89;91108;1276;137633;-74
2023/07/22 00:47:39;;;;;;;5.70;4.30;;;;;;;17.88;94.60;100116.33;91148;1272;22855;-73
2023/07/22 00:49:40;;;;;;;5.10;4.70;;;;;;;17.84;94.84;100114.92;91025;1277;138188;-70
2023/07/22 00:51:42;;;;;;;6.70;4.40;;;;;;;17.88;95.05;100115.10;91202;1275;22225;-72
2023/07/22 00:53:44;;;;;;;6.30;5.00;;;;;;;17.91;95.14;100116.44;91051;1272;137991;-70
2023/07/22 00:55:46;;;;;;;8.80;4.40;;;;;;;17.94;94.99;100116.29;91228;1278;22113;-72
2023/07/22 00:57:47;;;;;;;4.20;3.90;;;;;;;17.95;95.31;100122.52;91096;1275;139409;-70
2023/07/22 00:59:49;;;;;;;4.30;3.90;;;;;;;17.97;95.90;100126.48;91139;1273;22114;-74
2023/07/22 01:01:51;;;;;;;4.70;4.40;;;;;;;17.97;96.01;100128.63;91086;1274;139356;-72
2023/07/22 01:03:53;;;;;;;3.80;3.50;;;;;;;17.97;96.23;100130.52;91252;1259;22316;-72
2023/07/22 01:05:56;;;;;;;4.80;4.30;;;;;;;17.96;96.21;100130.77;91124;1260;138581;-73
2023/07/22 01:07:58;;;;;;;5.30;4.10;;;;;;;17.92;96.46;100130.64;91173;1275;23041;-73
2023/07/22 01:10:00;;;;;;;3.90;3.50;;;;;;;17.89;96.59;100129.63;91053;1272;137971;-73
2023/07/22 01:12:02;;;;;;;3.70;3.40;;;;;;;17.87;96.84;100129.70;91193;1275;22177;-72
2023/07/22 01:14:04;;;;;;;5.10;4.30;;;;;;;17.88;97.07;100131.02;91150;1272;22181;-73
2023/07/22 01:16:06;;;;;;;4.30;3.90;;;;;;;17.90;97.17;100133.74;91180;1270;139135;-73
2023/07/22 01:18:08;;;;;;;4.20;3.70;;;;;;;17.94;97.17;100129.60;91225;1275;22143;-72
2023/07/22 01:20:10;;;;;;;4.60;4.00;;;;;;;17.98;96.94;100124.94;91099;1272;138232;-74
2023/07/22 01:22:13;;;;;;;3.80;3.60;;;;;;;18.03;96.64;100127.29;91160;1275;22984;-74
2023/07/22 01:24:16;;;;;;;4.10;3.70;;;;;;;18.06;96.53;100131.81;91020;1273;139629;-73
2023/07/22 01:26:19;;;;;;;3.20;3.00;;;;;;;18.09;96.70;100130.51;91227;1275;23289;-73
2023/07/22 01:28:21;;;;;;;4.10;3.80;;;;;;;18.11;97.05;100134.33;91067;1274;140097;-72
2023/07/22 01:30:23;;;;;;;3.40;3.20;;;;;;;18.11;97.14;100135.09;91221;1272;22258;-72
2023/07/22 01:32:25;;;;;;;4.30;4.00;;;;;;;18.09;97.30;100130.91;91091;1272;138069;-73
2023/07/22 01:34:27;;;;;;;4.30;3.90;;;;;;;18.08;97.43;100131.80;91231;1278;22214;-73
2023/07/22 01:36:28;;;;;;;4.60;3.30;;;;;;;18.07;97.57;100130.64;91090;1273;138366;-73
2023/07/22 01:38:31;;;;;;;3.70;3.30;;;;;;;18.06;97.93;100131.77;91216;1276;22367;-73
2023/07/22 01:40:32;;;;;;;3.90;3.60;;;;;;;18.07;98.09;100130.81;91001;1273;138441;-72
2023/07/22 01:42:34;;;;;;;6.90;4.10;;;;;;;18.04;98.26;100127.55;91213;1273;23139;-73
2023/07/22 01:44:36;;;;;;;5.80;3.70;;;;;;;18.08;98.28;100132.03;91118;1278;138102;-72
2023/07/22 01:46:37;;;;;;;3.80;3.50;;;;;;;18.10;98.73;100130.53;91189;1272;23291;-71
2023/07/22 01:48:39;;;;;;;6.80;3.90;;;;;;;18.11;98.48;100133.13;91029;1271;137829;-71
2023/07/22 01:50:41;;;;;;;3.90;3.30;;;;;;;18.10;98.46;100132.69;91196;1275;22323;-71
2023/07/22 01:52:42;;;;;;;3.70;3.40;;;;;;;18.08;98.83;100134.49;91092;1273;138355;-71
2023/07/22 01:54:44;;;;;;;3.90;3.30;;;;;;;18.07;99.05;100134.43;91195;1273;22889;-72
2023/07/22 01:56:46;;;;;;;4.10;3.40;;;;;;;18.06;99.59;100130.95;91042;1273;138477;-71
2023/07/22 01:58:48;;;;;;;3.10;2.80;;;;;;;18.05;99.57;100131.75;91168;1276;22976;-73
2023/07/22 02:00:52;;;;;;;3.20;2.90;;;;;;;18.05;99.73;100132.62;91038;1269;138431;-76
2023/07/22 02:02:54;;;;;;;;;;;;;;;18.05;100.00;100128.14;91115;1278;23152;-73
2023/07/22 02:04:56;;;;;;;4.20;3.00;;;;;;;18.02;100.00;100128.24;91123;1275;125240;-73
2023/07/22 02:06:58;;;;;;;4.10;3.20;;;;;;;17.98;100.00;100131.24;91204;1273;22122;-74
2023/07/22 02:09:07;;;;;;;3.50;3.00;;;;;;;17.97;100.00;100129.16;91061;1279;138368;-72
2023/07/22 02:11:12;;;;;;;4.40;3.10;;;;;;;17.99;100.00;100137.73;91217;1276;22170;-73
2023/07/22 02:13:14;;;;;;;3.80;3.50;;;;;;;17.99;100.00;100132.77;91067;1278;138920;-72
2023/07/22 02:15:16;;;;;;;4.10;3.70;;;;;;;17.99;100.00;100128.23;91152;1275;23108;-71
2023/07/22 02:17:18;;;;;;;4.30;4.00;;;;;;;18.00;100.00;100124.48;91020;1263;138871;-71
2023/07/22 02:19:19;;;;;;;3.10;2.80;;;;;;;18.01;100.00;100126.61;91127;1260;22240;-70
2023/07/22 02:21:21;;;;;;;5.30;3.60;;;;;;;18.04;100.00;100130.98;90961;1273;140415;-72
2023/07/22 02:23:24;;;;;;;4.10;3.70;;;;;;;18.07;100.00;100137.45;91194;1275;22213;-72
2023/07/22 02:25:26;;;;;;;3.60;3.10;;;;;;;18.09;100.00;100141.42;91112;1272;138552;-74
2023/07/22 02:27:28;;;;;;;4.20;2.50;;;;;;;18.12;98.26;100143.35;91219;1275;22309;-72
2023/07/22 02:29:31;;;;;;;3.00;2.80;;;;;;;18.16;97.38;100141.95;90885;1276;138256;-73
2023/07/22 02:31:32;;;;;;;3.40;3.20;;;;;;;18.21;97.31;100140.05;91212;1274;23000;-73
2023/07/22 02:33:34;;;;;;;4.70;3.30;;;;;;;18.24;97.82;100140.48;91109;1276;138100;-74
2023/07/22 02:35:36;;;;;;;3.80;3.50;;;;;;;18.26;98.00;100139.86;91191;1269;22362;-74
2023/07/22 02:37:38;;;;;;;4.10;3.70;;;;;;;18.27;98.28;100145.27;91085;1273;137913;-74
2023/07/22 02:39:40;;;;;;;3.60;3.20;;;;;;;18.28;98.47;100145.30;91185;1279;22253;-73
2023/07/22 02:41:42;;;;;;;3.10;2.90;;;;;;;18.31;98.54;100144.77;91042;1260;138298;-71
2023/07/22 02:43:43;;;;;;;3.00;2.80;;;;;;;18.38;98.79;100145.52;91225;1273;22905;-70
2023/07/22 02:45:45;;;;;;;3.40;3.10;;;;;;;18.44;99.10;100148.27;91113;1272;138116;-72
2023/07/22 02:47:47;;;;;;;3.40;3.20;;;;;;;18.51;98.78;100151.34;91211;1275;22398;-71
2023/07/22 02:49:49;;;;;;;3.70;3.40;;;;;;;18.57;98.40;100148.52;91126;1275;138839;-72
2023/07/22 02:51:51;;;;;;;3.50;3.20;;;;;;;18.64;98.02;100150.96;91072;1274;22334;-72
2023/07/22 02:53:53;;;;;;;4.10;3.80;;;;;;;18.72;97.53;100152.27;91025;1275;137778;-70
2023/07/22 02:55:55;;;;;;;4.20;3.60;;;;;;;18.80;96.86;100151.80;91210;1278;22195;-75
2023/07/22 02:57:56;;;;;;;4.80;4.00;;;;;;;18.86;96.04;100150.73;91038;1262;138490;-70
2023/07/22 02:59:58;;;;;;;4.40;3.40;;;;;;;18.91;95.25;100146.63;91168;1273;22233;-71
2023/07/22 03:02:00;;;;;;;3.90;3.10;;;;;;;18.94;94.70;100144.58;91112;1275;139790;-72
2023/07/22 03:04:02;;;;;;;3.50;3.20;;;;;;;19.00;94.01;100146.83;91256;1273;22262;-72
2023/07/22 03:06:04;;;;;;;4.60;4.10;;;;;;;19.08;93.15;100147.46;91246;1278;22104;-71
2023/07/22 03:08:06;;;;;;;4.60;3.60;;;;;;;19.15;92.68;100147.73;91116;1273;138378;-73
2023/07/22 03:10:09;;;;;;;4.10;3.10;;;;;;;19.23;92.47;100145.03;91145;1275;22173;-73
2023/07/22 03:12:10;;;;;;;3.40;3.10;;;;;;;19.31;91.65;100144.58;91035;1274;138506;-71
2023/07/22 03:14:12;;;;;;;4.90;3.40;;;;;;;19.37;91.00;100144.33;91178;1275;22303;-76
2023/07/22 03:16:14;;;;;;;6.70;3.60;;;;;;;19.39;90.49;100143.15;91083;1272;138507;-76
2023/07/22 03:18:17;;;;;;;4.50;4.10;;;;;;;19.38;90.60;100144.18;91173;1279;22212;-71
2023/07/22 03:20:19;;;;;;;3.50;3.20;;;;;;;19.37;90.83;100143.09;91115;1278;140116;-72
2023/07/22 03:22:21;;;;;;;8.00;3.50;;;;;;;19.28;91.01;100130.16;91197;1273;22114;-73
2023/07/22 03:24:22;;;;;;;5.90;4.30;;;;;;;19.23;91.20;100129.46;91086;1273;137421;-72
2023/07/22 03:26:24;;;;;;;3.40;3.20;;;;;;;19.22;91.64;100134.70;91182;1276;22299;-73
2023/07/22 03:28:26;;;;;;;4.50;3.20;;;;;;;19.15;92.06;100133.35;91113;1275;137896;-75
2023/07/22 03:30:31;;;;;;;3.50;3.00;;;;;;;19.10;91.86;100128.96;91143;1276;22964;-74
2023/07/22 03:32:34;;;;;;;3.20;3.00;;;;;;;19.07;91.26;100128.50;91103;1272;138329;-71
2023/07/22 03:34:36;;;;;;;4.00;3.50;;;;;;;19.05;91.07;100127.93;91232;1275;22212;-72
2023/07/22 03:36:37;;;;;;;3.70;3.20;;;;;;;19.04;91.16;100121.21;91050;1279;138312;-74
2023/07/22 03:38:39;;;;;;;3.70;3.10;;;;;;;19.06;91.26;100119.52;91203;1273;22401;-72
2023/07/22 03:40:41;;;;;;;3.90;2.90;;;;;;;19.04;91.44;100118.19;91122;1278;138432;-75
2023/07/22 03:42:43;;;;;;;3.90;2.70;;;;;;;19.01;91.60;100115.45;91207;1273;22997;-73
2023/07/22 03:44:45;;;;;;;3.60;2.90;;;;;;;18.98;91.45;100112.16;91041;1275;139412;-74
2023/07/22 03:46:47;;;;;;;4.00;3.30;;;;;;;18.96;91.70;100115.91;91181;1273;22446;-73
2023/07/22 03:48:49;;;;;;;4.90;2.90;;;;;;;18.93;91.94;100116.09;91126;1275;138217;-73
2023/07/22 03:50:50;;;;;;;3.70;2.90;;;;;;;18.91;92.08;100117.75;91177;1279;22175;-73
2023/07/22 03:53:08;;;;;;;;;;;;;;;18.91;92.18;100117.95;91163;1276;139147;-73
2023/07/22 03:55:10;;;;;;;3.40;3.10;;;;;;;18.89;91.47;100119.88;91215;1273;23115;-73
2023/07/22 03:57:16;;;;;;;4.00;3.30;;;;;;;18.89;91.56;100120.36;91064;1275;138199;-73
2023/07/22 03:59:18;;;;;;;2.80;2.50;;;;;;;18.93;91.30;100115.34;91150;1275;22290;-72
2023/07/22 04:01:19;;;;;;;2.20;2.00;;;;;;;18.91;90.93;100107.54;90994;1260;138828;-73
2023/07/22 04:03:21;;;;;;;4.40;2.40;;;;;;;18.96;90.71;100106.55;90986;1273;23110;-72
2023/07/22 04:05:23;;;;;;;2.70;2.50;;;;;;;19.07;90.37;100118.23;91075;1271;138040;-73
2023/07/22 04:07:25;;;;;;;5.20;2.50;;;;;;;19.12;89.50;100122.28;91177;1272;22290;-73
2023/07/22 04:09:27;;;;;;;2.50;2.30;;;;;;;19.15;88.05;100123.85;91022;1275;137706;-73
2023/07/22 04:11:29;;;;;;;2.60;2.40;;;;;;;19.15;87.12;100123.69;91103;1272;23112;-73
2023/07/22 04:13:31;;;;;;;2.70;2.30;;;;;;;19.14;86.98;100122.05;90985;1272;137270;-72
2023/07/22 04:15:33;;;;;;;2.90;2.50;;;;;;;19.15;87.29;100120.39;91176;1269;22308;-73
2023/07/22 04:17:35;;;;;;;5.00;3.60;;;;;;;19.16;87.26;100119.77;91059;1272;137745;-72
2023/07/22 04:19:36;;;;;;;4.50;2.10;;;;;;;19.18;86.78;100116.05;91063;1276;22354;-72
2023/07/22 04:21:38;;;;;;;1.90;1.80;;;;;;;19.22;86.57;100116.86;91036;1275;142388;-72
2023/07/22 04:23:40;;;;;;;2.00;1.80;;;;;;;19.27;86.23;100111.23;91100;1272;22295;-71
2023/07/22 04:25:44;;;;;;;2.40;2.20;;;;;;;19.32;85.49;100107.52;90998;1273;138379;-72
2023/07/22 04:27:45;;;;;;;4.10;2.50;;;;;;;19.36;84.62;100105.79;91146;1272;22394;-73
2023/07/22 04:29:47;;;;;;;2.20;2.00;;;;;;;19.40;83.84;100100.00;90900;1272;137999;-72
2023/07/22 04:31:49;;;;;;;1.90;1.70;;;;;;;19.46;83.76;100101.40;91064;1272;22781;-73
2023/07/22 04:33:51;;;;;;;2.40;2.20;;;;;;;19.53;82.84;100105.48;90966;1278;139022;-72
2023/07/22 04:35:56;;;;;;;2.20;2.00;;;;;;;19.58;82.64;100103.45;91141;1272;22817;-72
2023/07/22 04:37:57;;;;;;;4.70;2.60;;;;;;;19.60;83.03;100103.84;91026;1272;137221;-72
2023/07/22 04:39:59;;;;;;;1.60;1.50;;;;;;;19.64;83.07;100106.91;91118;1276;23016;-71
2023/07/22 04:42:01;;;;;;;4.90;2.20;;;;;;;19.68;81.87;100102.52;90960;1273;137146;-71
2023/07/22 04:44:03;;;;;;;1.60;1.10;;;;;;;19.74;80.77;100101.36;90971;1273;139206;-72
2023/07/22 04:46:05;;;;;;;3.00;1.40;;;;;;;19.80;79.61;100103.70;91133;1270;23144;-72
2023/07/22 04:48:07;;;;;;;4.80;1.60;;;;;;;19.83;77.80;100101.07;91072;1272;137990;-74
2023/07/22 04:50:09;;;;;;;2.50;2.00;;;;;;;19.86;76.88;100097.52;91166;1272;22188;-73
2023/07/22 04:52:11;;;;;;;3.40;1.50;;;;;;;19.86;76.93;100097.16;91043;1273;139443;-73
2023/07/22 04:54:14;;;;;;;1.50;1.30;;;;;;;19.81;76.65;100084.88;91043;1273;23141;-70
2023/07/22 04:56:16;;;;;;;2.10;1.70;;;;;;;19.88;76.88;100095.02;91039;1272;141623;-72
2023/07/22 04:58:20;;;;;;;1.60;1.50;;;;;;;19.89;77.29;100098.70;91099;1273;22117;-72
2023/07/22 05:00:22;;;;;;;1.70;1.50;;;;;;;19.91;78.19;100096.71;91046;1273;137660;-72
2023/07/22 05:02:23;;;;;;;2.00;1.40;;;;;;;19.94;78.72;100094.80;91144;1276;22387;-74
2023/07/22 05:04:25;;;;;;;1.60;1.50;;;;;;;19.96;78.32;100094.34;90961;1273;138384;-73
2023/07/22 05:06:28;;;;;;;1.30;1.30;;;;;;;20.00;77.45;100094.27;91164;1273;23206;-73
2023/07/22 05:08:30;;;;;;;2.40;1.00;;;;;;;20.02;76.34;100095.64;90996;1270;137520;-72
2023/07/22 05:10:32;;;;;;;1.20;0.70;;;;;;;20.00;75.20;100091.13;91148;1272;22355;-73
2023/07/22 05:12:33;;;;;;;4.00;1.40;;;;;;;19.96;74.92;100095.20;90989;1273;137589;-73
2023/07/22 05:14:35;;;;;;;0.50;0.50;;;;;;;19.93;74.83;100097.83;91133;1272;23004;-74
2023/07/22 05:16:37;;;;;;;2.90;0.70;;;;;;;19.90;75.37;100104.49;91042;1270;137428;-74
2023/07/22 05:18:39;;;;;;;1.70;0.80;;;;;;;19.88;74.98;100104.11;91175;1272;22966;-73
2023/07/22 05:20:40;;;;;;;4.90;1.10;;;;;;;19.86;74.79;100105.71;91031;1272;138877;-72
2023/07/22 05:22:42;;;;;;;0.60;0.60;;;;;;;19.85;74.84;100105.48;91055;1272;22331;-72
2023/07/22 05:24:44;;;;;;;1.90;1.50;;;;;;;19.81;74.86;100103.88;91016;1273;139923;-73
2023/07/22 05:26:46;;;;;;;1.20;1.10;;;;;;;19.80;74.88;100101.80;91124;1273;23020;-72
2023/07/22 05:29:08;;;;;;;5.30;3.10;;;;;;;19.80;75.64;100095.16;91052;1273;138069;-74
2023/07/22 05:31:10;;;;;;;1.30;1.30;;;;;;;19.79;75.70;100095.05;91200;1273;22339;-72
2023/07/22 05:33:12;;;;;;;1.50;1.40;;;;;;;19.79;75.93;100094.77;91051;1273;137596;-74
2023/07/22 05:35:13;;;;;;;1.90;1.80;;;;;;;19.75;76.71;100091.80;91129;1273;22348;-73
2023/07/22 05:37:15;;;;;;;4.00;2.90;;;;;;;19.75;77.03;100093.70;91018;1273;138029;-72
2023/07/22 05:39:20;;;;;;;1.40;1.30;;;;;;;19.76;77.51;100095.27;91075;1269;22242;-72
2023/07/22 05:41:23;;;;;;;2.10;2.00;;;;;;;19.76;78.06;100093.48;91076;1272;137930;-75
2023/07/22 05:43:25;;;;;;;2.20;1.70;;;;;;;19.77;78.49;100096.20;91172;1273;22405;-73
2023/07/22 05:45:26;;;;;;;2.00;1.80;;;;;;;19.80;78.72;100098.17;91028;1270;138426;-71
2023/07/22 05:47:28;;;;;;;1.50;1.40;;;;;;;19.80;78.94;100095.58;91145;1273;22305;-72
2023/07/22 05:49:30;;;;;;;1.20;1.10;;;;;;;19.77;79.43;100098.80;91045;1273;138304;-72
2023/07/22 05:51:32;;;;;;;2.80;1.10;;;;;;;19.76;79.49;100095.44;91139;1272;22307;-72
2023/07/22 05:53:34;;;;;;;1.60;1.00;;;;;;;19.70;79.88;100096.54;90998;1270;138487;-72
2023/07/22 05:55:35;;;;;;;1.00;1.00;;;;;;;19.68;79.98;100097.54;91056;1271;22415;-74
2023/07/22 05:57:37;;;;;;;1.30;1.20;;;;;;;19.65;80.28;100102.16;91076;1273;138170;-71
2023/07/22 05:59:40;;;;;;;1.20;1.10;;;;;;;19.64;81.00;100107.02;91059;1273;22335;-72
2023/07/22 06:01:41;;;;;;;2.20;0.70;;;;;;;19.56;81.23;100107.05;90896;1272;137891;-73
2023/07/22 06:03:43;;;;;;;2.10;2.00;;;;;;;19.61;81.80;100122.35;91175;1272;22808;-71
2023/07/22 06:05:45;;;;;;;0.70;0.70;;;;;;;19.61;83.35;100129.27;91075;1272;138026;-73
2023/07/22 06:07:47;;;;;;;1.10;0.80;;;;;;;19.61;83.67;100131.21;91155;1273;22353;-71
2023/07/22 06:09:49;;;;;;;1.60;1.00;;;;;;;19.60;84.61;100134.48;91064;1272;139514;-70
2023/07/22 06:11:51;;;;;;;0.70;0.70;;;;;;;19.58;85.26;100136.41;91137;1272;22186;-72
2023/07/22 06:13:53;;;;;;;1.00;0.80;;;;;;;19.51;87.02;100131.36;91114;1271;137863;-71
2023/07/22 06:15:55;;;;;;;1.00;0.80;;;;;;;19.40;88.90;100129.19;91193;1272;23243;-71
2023/07/22 06:17:59;;;;;;;0.60;0.60;;;;;;;19.31;88.93;100132.20;91162;1271;137938;-74
2023/07/22 06:20:01;;;;;;;2.30;0.60;;;;;;;19.21;90.14;100127.17;91043;1273;23254;-71
2023/07/22 06:22:03;;;;;;;1.10;0.70;;;;;;;19.11;91.65;100126.11;91165;1272;23237;-72
2023/07/22 06:24:06;;;;;;;1.50;0.80;;;;;;;19.04;92.27;100124.13;91083;1274;140168;-72
2023/07/22 06:26:07;;;;;;;1.30;1.00;;;;;;;18.99;93.60;100125.57;91211;1272;22401;-71
2023/07/22 06:28:09;;;;;;;1.20;1.20;;;;;;;18.93;94.27;100129.16;91035;1272;138783;-70
2023/07/22 06:30:11;;;;;;;2.40;2.20;;;;;;;18.86;95.19;100126.52;91207;1272;23606;-73
2023/07/22 06:32:12;;;;;;;4.50;3.10;;;;;;;18.78;96.02;100126.45;90912;1273;138640;-74
2023/07/22 06:34:14;;;;;;;3.00;2.90;;;;;;;18.74;97.47;100127.52;91230;1272;22911;-71
2023/07/22 06:36:17;;;;;;;4.70;3.10;;;;;;;18.71;98.26;100129.84;91057;1272;138213;-70
2023/07/22 06:38:21;;;;;;;2.50;2.30;;;;;;;18.68;99.18;100131.80;91063;1273;22325;-71
2023/07/22 06:40:25;;;;;;;3.00;2.60;;;;;;;18.66;99.81;100135.23;91107;1270;139038;-74
2023/07/22 06:42:27;;;;;;;3.90;3.70;;;;;;;18.64;100.00;100141.30;91181;1270;23121;-70
2023/07/22 06:44:30;;;;;;;3.50;2.60;;;;;;;18.64;100.00;100138.98;90971;1272;139749;-70
2023/07/22 06:46:34;;;;;;;1.50;1.40;;;;;;;18.61;100.00;100144.54;91178;1272;22320;-71
2023/07/22 06:48:38;;;;;;;2.90;2.60;;;;;;;18.56;100.00;100148.02;90954;1272;138279;-70
2023/07/22 06:50:46;;;;;;;4.50;3.20;;;;;;;18.48;100.00;100150.43;91107;1270;22338;-71
2023/07/22 06:52:48;;;;;;;2.80;2.60;;;;;;;18.41;100.00;100151.61;90986;1272;138353;-70
2023/07/22 06:54:50;;;;;;;2.40;2.30;;;;;;;18.37;100.00;100154.14;91193;1272;22332;-71
2023/07/22 06:56:51;;;;;;;1.90;1.30;;;;;;;18.30;100.00;100154.41;91069;1271;138519;-71
2023/07/22 06:58:53;;;;;;;1.60;1.50;;;;;;;18.20;100.00;100154.23;91165;1272;22343;-70
2023/07/22 07:00:55;;;;;;;2.40;2.20;;;;;;;18.11;100.00;100157.63;90917;1273;138107;-71
2023/07/22 07:02:57;;;;;;;5.30;1.50;;;;;;;18.04;100.00;100157.02;91085;1272;22446;-74
2023/07/22 07:04:59;;;;;;;1.10;1.10;;;;;;;17.98;100.00;100161.01;91107;1270;138098;-73
2023/07/22 07:07:00;;;;;;;1.50;0.90;;;;;;;17.91;100.00;100162.29;91194;1272;22231;-69
2023/07/22 07:09:02;;;;;;;1.90;1.30;;;;;;;17.84;100.00;100166.35;91001;1261;138231;-72
2023/07/22 07:11:04;;;;;;;1.80;1.30;;;;;;;17.77;100.00;100169.91;91231;1272;22321;-72
2023/07/22 07:13:06;;;;;;;1.10;1.10;;;;;;;17.69;100.00;100168.62;91087;1272;138235;-71
2023/07/22 07:15:08;;;;;;;1.90;1.80;;;;;;;17.64;100.00;100172.67;91225;1272;22202;-71
2023/07/22 07:17:10;;;;;;;4.30;1.80;;;;;;;17.64;100.00;100170.70;90993;1272;138058;-74
2023/07/22 07:19:12;;;;;;;1.10;0.90;;;;;;;17.65;100.00;100171.91;91124;1272;22298;-72
2023/07/22 07:21:13;;;;;;;3.90;1.70;;;;;;;17.64;100.00;100172.10;91089;1272;139481;-74
2023/07/22 07:23:16;;;;;;;1.90;1.70;;;;;;;17.61;100.00;100169.21;91181;1272;22375;-72
2023/07/22 07:25:18;;;;;;;1.40;1.20;;;;;;;17.60;100.00;100168.51;90955;1271;138745;-70
2023/07/22 07:27:19;;;;;;;2.60;2.00;;;;;;;17.57;100.00;100164.08;91106;1272;22320;-71
2023/07/22 07:29:21;;;;;;;1.70;1.00;;;;;;;17.57;100.00;100165.48;91044;1272;139239;-74
2023/07/22 07:31:43;;;;;;;1.80;1.70;;;;;;;17.61;100.00;100164.04;91154;1272;22336;-72
2023/07/22 07:33:44;;;;;;;1.80;1.70;;;;;;;17.61;100.00;100166.21;91029;1271;140274;-71
2023/07/22 07:35:47;;;;;;;1.30;1.20;;;;;;;17.60;100.00;100166.02;91130;1273;22334;-72
2023/07/22 07:37:48;;;;;;;1.50;1.40;;;;;;;17.61;100.00;100166.36;91048;1272;138259;-70
2023/07/22 07:39:50;;;;;;;1.90;1.40;;;;;;;17.63;100.00;100164.41;91151;1272;24407;-71
2023/07/22 07:41:52;;;;;;;1.50;1.40;;;;;;;17.65;100.00;100163.50;91017;1272;138245;-71
2023/07/22 07:43:54;;;;;;;2.60;1.40;;;;;;;17.66;100.00;100164.38;91014;1272;22363;-71
2023/07/22 07:46:17;;;;;;;1.90;1.80;;;;;;;17.65;100.00;100165.58;90911;1268;138086;-70
2023/07/22 07:48:19;;;;;;;2.10;1.60;;;;;;;17.59;100.00;100163.90;90924;1272;138526;-71
2023/07/22 07:50:21;;;;;;;3.20;1.20;;;;;;;17.54;100.00;100161.81;91134;1271;22348;-71
2023/07/22 07:52:23;;;;;;;2.10;2.00;;;;;;;17.48;100.00;100162.19;90967;1272;138329;-70
2023/07/22 07:54:25;;;;;;;1.70;1.60;;;;;;;17.44;100.00;100169.24;91098;1272;22352;-70
2023/07/22 07:56:26;;;;;;;1.40;1.30;;;;;;;17.40;100.00;100164.00;91054;1272;138492;-72
2023/07/22 07:58:29;;;;;;;2.40;1.70;;;;;;;17.38;100.00;100164.82;91141;1271;22258;-70
2023/07/22 08:00:30;;;;;;;1.50;1.40;;;;;;;17.41;100.00;100162.30;91008;1272;138230;-71
2023/07/22 08:02:32;;;;;;;1.70;1.60;;;;;;;17.43;100.00;100159.44;91160;1272;22328;-72
2023/07/22 08:04:34;;;;;;;3.30;1.80;;;;;;;17.40;100.00;100157.48;91063;1272;140903;-71
2023/07/22 08:06:37;;;;;;;1.90;1.60;;;;;;;17.35;100.00;100156.19;91158;1272;23132;-68
2023/07/22 08:08:39;;;;;;;1.00;0.90;;;;;;;17.30;100.00;100151.40;91055;1271;138794;-71
2023/07/22 08:10:43;;;;;;;1.00;1.00;;;;;;;17.22;100.00;100147.15;91055;1273;23214;-72
2023/07/22 08:12:44;;;;;;;2.10;1.80;;;;;;;17.19;100.00;100145.73;90888;1272;139660;-69
2023/07/22 08:14:46;;;;;;;3.10;1.20;;;;;;;17.17;100.00;100149.23;91150;1272;22485;-70
2023/07/22 08:16:48;;;;;;;1.40;1.30;;;;;;;17.10;100.00;100150.16;90945;1264;139006;-70
2023/07/22 08:18:50;;;;;;;1.50;1.40;;;;;;;17.04;100.00;100144.98;91172;1266;22230;-74
2023/07/22 08:20:53;;;;;;;1.90;1.30;;;;;;;17.03;100.00;100137.74;90884;1274;138609;-69
2023/07/22 08:22:54;;;;;;;2.50;2.30;;;;;;;17.04;100.00;100139.42;90960;1273;22321;-70
2023/07/22 08:24:56;;;;;;;4.30;4.00;;;;;;;17.05;100.00;100139.73;91011;1271;138634;-71
2023/07/22 08:26:58;;;;;;;6.80;6.30;;;;;;;17.07;100.00;100142.77;91163;1272;22293;-72
2023/07/22 08:29:00;;;;;;;7.40;5.90;;;;;;;17.07;100.00;100140.48;91104;1270;140000;-71
2023/07/22 08:31:02;;;;;;;4.60;4.40;;;;;;;17.05;100.00;100137.41;91162;1272;22842;-71
2023/07/22 08:33:05;;;;;;;4.10;3.90;;;;;;;17.06;100.00;100137.63;91042;1272;139006;-70
2023/07/22 08:35:07;;;;;;;3.10;3.00;;;;;;;17.07;100.00;100132.53;90972;1273;22269;-71
2023/07/22 08:37:11;;;;;;;3.70;2.40;;;;;;;17.07;100.00;100132.06;91044;1272;139454;-71
2023/07/22 08:39:13;;;;;;;3.50;3.00;;;;;;;17.06;100.00;100133.98;91199;1271;22431;-71
2023/07/22 08:41:18;;;;;;;3.70;2.70;;;;;;;17.03;100.00;100131.77;91061;1272;139099;-72
2023/07/22 08:43:22;;;;;;;2.70;2.20;;;;;;;17.01;100.00;100124.32;91143;1260;22479;-71
2023/07/22 08:45:28;;;;;;;3.70;2.10;;;;;;;16.93;100.00;100131.21;91050;1260;138233;-74
2023/07/22 08:47:32;;;;;;;7.80;3.10;;;;;;;16.89;100.00;100132.14;91056;1272;22350;-74
2023/07/22 08:49:34;;;;;;;3.10;2.70;;;;;;;16.88;100.00;100127.61;91068;1271;139955;-73
2023/07/22 08:51:37;;;;;;;3.00;2.30;;;;;;;16.86;100.00;100126.66;91137;1271;22853;-77
2023/07/22 08:53:39;;;;;;;2.80;2.70;;;;;;;16.81;100.00;100121.52;91046;1272;140042;-75
2023/07/22 08:55:41;;;;;;;2.10;2.00;;;;;;;16.77;100.00;100124.31;91108;1271;22325;-74
2023/07/22 08:57:44;;;;;;;2.60;1.70;;;;;;;16.76;100.00;100120.72;91032;1272;138915;-75
2023/07/22 08:59:47;;;;;;;2.70;2.00;;;;;;;16.73;100.00;100119.64;90986;1271;22922;-77
2023/07/22 09:01:49;;;;;;;4.80;3.30;;;;;;;16.70;100.00;100114.89;90967;1272;138227;-72
2023/07/22 09:03:52;;;;;;;2.60;1.90;;;;;;;16.69;100.00;100117.45;90944;1273;22224;-74
2023/07/22 09:05:55;;;;;;;2.70;2.50;;;;;;;16.66;100.00;100114.55;90993;1271;137926;-78
2023/07/22 09:07:58;;;;;;;2.90;2.70;;;;;;;16.67;100.00;100117.73;90990;1272;23049;-74
2023/07/22 09:10:00;;;;;;;2.30;2.20;;;;;;;16.65;100.00;100118.26;90953;1272;138935;-78
2023/07/22 09:12:02;;;;;;;2.90;2.70;;;;;;;16.64;100.00;100116.87;91202;1258;22813;-73
2023/07/22 09:14:04;;;;;;;2.80;2.50;;;;;;;16.60;100.00;100117.41;91174;1272;23076;-74
2023/07/22 09:16:07;;;;;;;2.90;1.50;;;;;;;16.58;100.00;100109.94;90882;1272;139374;-76
2023/07/22 09:18:09;;;;;;;1.90;1.80;;;;;;;16.55;100.00;100098.35;91150;1272;22351;-70
2023/07/22 09:20:15;;;;;;;2.90;2.70;;;;;;;16.53;100.00;100095.41;91034;1266;139282;-75
2023/07/22 09:22:17;;;;;;;4.70;1.90;;;;;;;16.47;100.00;100085.05;90998;1273;22419;-69
2023/07/22 09:24:24;;;;;;;3.20;2.90;;;;;;;16.53;100.00;100100.29;90847;1273;139727;-73